createdAt,value
2022-07-30T00:00:57.172Z,18.77
2022-07-30T00:03:23.895Z,18.73
2022-07-30T00:05:50.661Z,18.49
2022-07-30T00:08:17.236Z,18.66
2022-07-30T00:10:43.929Z,18.62
2022-07-30T00:13:14.269Z,18.57
2022-07-30T00:15:41.072Z,18.51
2022-07-30T00:18:07.828Z,18.47
2022-07-30T00:20:34.486Z,18.49
2022-07-30T00:23:06.090Z,18.42
2022-07-30T00:25:35.239Z,18.41
2022-07-30T00:28:01.806Z,18.35
2022-07-30T00:30:28.426Z,18.33
2022-07-30T00:32:57.320Z,18.33
2022-07-30T00:35:23.985Z,18.28
2022-07-30T00:37:50.704Z,18.15
2022-07-30T00:40:17.299Z,18.19
2022-07-30T00:42:46.111Z,18.15
2022-07-30T00:45:14.313Z,18.13
2022-07-30T00:47:45.875Z,18.13
2022-07-30T00:50:13.839Z,18.11
2022-07-30T00:52:41.279Z,18.06
2022-07-30T00:55:14.085Z,18.04
2022-07-30T00:57:41.623Z,18.02
2022-07-30T01:00:13.413Z,17.98
2022-07-30T01:02:40.421Z,17.88
2022-07-30T01:05:07.713Z,17.88
2022-07-30T01:07:34.520Z,17.91
2022-07-30T01:10:01.414Z,17.89
2022-07-30T01:12:28.599Z,17.82
2022-07-30T01:14:59.656Z,17.77
2022-07-30T01:17:28.565Z,17.79
2022-07-30T01:19:59.445Z,17.78
2022-07-30T01:22:39.468Z,17.76
2022-07-30T01:25:11.947Z,17.71
2022-07-30T01:27:55.061Z,17.63
2022-07-30T01:30:25.448Z,17.56
2022-07-30T01:32:54.568Z,17.62
2022-07-30T01:35:23.558Z,17.57
2022-07-30T01:37:55.684Z,17.55
2022-07-30T01:40:25.296Z,17.51
2022-07-30T01:42:57.673Z,17.49
2022-07-30T01:45:28.763Z,17.46
2022-07-30T01:48:02.915Z,17.42
2022-07-30T01:50:30.806Z,17.39
2022-07-30T01:52:58.999Z,17.35
2022-07-30T01:55:30.834Z,17.36
2022-07-30T01:57:59.171Z,17.27
2022-07-30T02:00:30.946Z,17.25
2022-07-30T02:02:58.781Z,17.21
2022-07-30T02:05:28.111Z,17.21
2022-07-30T02:08:26.950Z,17.19
2022-07-30T02:11:08.871Z,17.13
2022-07-30T02:13:44.347Z,17.06
2022-07-30T02:16:18.394Z,17.07
2022-07-30T02:18:58.585Z,17.01
2022-07-30T02:21:34.042Z,16.99
2022-07-30T02:24:12.023Z,16.96
2022-07-30T02:26:42.998Z,16.95
2022-07-30T02:29:11.733Z,16.95
2022-07-30T02:31:41.080Z,16.92
2022-07-30T02:34:09.008Z,16.90
2022-07-30T02:36:37.179Z,16.88
2022-07-30T02:39:05.016Z,16.67
2022-07-30T02:41:32.966Z,16.82
2022-07-30T02:44:00.629Z,16.79
2022-07-30T02:46:28.779Z,16.78
2022-07-30T02:48:57.601Z,16.76
2022-07-30T02:51:26.025Z,16.71
2022-07-30T02:53:55.295Z,16.63
2022-07-30T02:56:22.954Z,16.68
2022-07-30T02:58:51.529Z,16.63
2022-07-30T03:01:21.803Z,16.63
2022-07-30T03:03:49.756Z,16.61
2022-07-30T03:06:18.239Z,16.57
2022-07-30T03:08:47.105Z,16.55
2022-07-30T03:11:17.500Z,16.47
2022-07-30T03:13:44.658Z,16.49
2022-07-30T03:16:13.725Z,16.41
2022-07-30T03:18:43.047Z,16.43
2022-07-30T03:21:11.918Z,16.40
2022-07-30T03:23:44.218Z,16.35
2022-07-30T03:26:12.730Z,16.17
2022-07-30T03:28:40.874Z,16.27
2022-07-30T03:31:08.622Z,16.31
2022-07-30T03:33:38.745Z,16.30
2022-07-30T03:36:07.341Z,16.26
2022-07-30T03:38:36.703Z,16.25
2022-07-30T03:41:05.146Z,16.20
2022-07-30T03:43:33.423Z,16.24
2022-07-30T03:46:03.552Z,16.21
2022-07-30T03:48:31.475Z,16.16
2022-07-30T03:50:59.130Z,16.14
2022-07-30T03:53:27.647Z,16.18
2022-07-30T03:55:54.947Z,16.14
2022-07-30T03:58:22.421Z,16.13
2022-07-30T04:00:50.315Z,16.07
2022-07-30T04:03:32.463Z,16.06
2022-07-30T04:05:59.402Z,16.08
2022-07-30T04:08:27.307Z,16.06
2022-07-30T04:10:54.050Z,16.05
2022-07-30T04:13:20.693Z,16.08
2022-07-30T04:16:38.795Z,16.01
2022-07-30T04:19:01.941Z,16.09
2022-07-30T04:21:30.021Z,16.04
2022-07-30T04:24:05.002Z,16.03
2022-07-30T04:26:33.929Z,16.09
2022-07-30T04:29:02.158Z,16.18
2022-07-30T04:31:29.790Z,16.16
2022-07-30T04:34:02.801Z,16.20
2022-07-30T04:36:35.735Z,16.25
2022-07-30T04:39:03.443Z,16.30
2022-07-30T04:41:48.665Z,16.38
2022-07-30T04:44:17.782Z,16.41
2022-07-30T04:46:44.503Z,16.50
2022-07-30T04:49:13.036Z,16.57
2022-07-30T04:51:41.049Z,16.58
2022-07-30T04:54:15.075Z,16.72
2022-07-30T04:56:53.197Z,16.75
2022-07-30T04:59:23.816Z,16.80
2022-07-30T05:01:52.358Z,17.46
2022-07-30T05:04:20.491Z,19.11
2022-07-30T05:06:47.797Z,20.77
2022-07-30T05:09:16.266Z,22.19
2022-07-30T05:11:49.531Z,23.21
2022-07-30T05:14:16.477Z,24.52
2022-07-30T05:16:43.090Z,25.43
2022-07-30T05:19:09.693Z,26.27
2022-07-30T05:21:36.237Z,27.13
2022-07-30T05:24:05.234Z,27.88
2022-07-30T05:26:31.818Z,28.49
2022-07-30T05:29:00.761Z,29.16
2022-07-30T05:31:31.124Z,29.58
2022-07-30T05:34:02.950Z,30.09
2022-07-30T05:36:32.282Z,30.80
2022-07-30T05:39:01.340Z,31.51
2022-07-30T05:41:32.885Z,32.04
2022-07-30T05:44:00.734Z,32.50
2022-07-30T05:46:27.953Z,32.74
2022-07-30T05:48:54.651Z,33.18
2022-07-30T05:51:22.232Z,33.60
2022-07-30T05:53:51.825Z,33.95
2022-07-30T05:56:20.950Z,34.28
2022-07-30T05:58:50.007Z,34.61
2022-07-30T06:01:16.897Z,34.73
2022-07-30T06:03:43.452Z,35.22
2022-07-30T06:06:10.049Z,34.97
2022-07-30T06:08:39.415Z,34.42
2022-07-30T06:11:08.841Z,34.84
2022-07-30T06:13:35.986Z,33.98
2022-07-30T06:16:02.662Z,34.60
2022-07-30T06:18:29.238Z,34.72
2022-07-30T06:20:58.177Z,35.07
2022-07-30T06:23:24.797Z,34.86
2022-07-30T06:25:53.570Z,34.57
2022-07-30T06:28:37.094Z,35.22
2022-07-30T06:31:05.733Z,35.38
2022-07-30T06:33:32.702Z,35.42
2022-07-30T06:35:59.500Z,35.43
2022-07-30T06:38:26.101Z,35.57
2022-07-30T06:40:58.115Z,34.86
2022-07-30T06:43:28.031Z,35.02
2022-07-30T06:45:54.773Z,35.28
2022-07-30T06:48:23.592Z,33.56
2022-07-30T06:50:50.194Z,31.54
2022-07-30T06:53:19.730Z,32.01
2022-07-30T06:55:46.307Z,31.24
2022-07-30T06:58:12.862Z,28.94
2022-07-30T07:00:39.417Z,27.24
2022-07-30T07:03:09.966Z,27.99
2022-07-30T07:05:38.866Z,28.62
2022-07-30T07:08:05.659Z,28.44
2022-07-30T07:10:32.518Z,27.10
2022-07-30T07:13:04.008Z,26.29
2022-07-30T07:15:36.801Z,27.17
2022-07-30T07:18:06.740Z,30.18
2022-07-30T07:20:34.766Z,31.30
2022-07-30T07:23:06.570Z,31.90
2022-07-30T07:25:36.418Z,32.56
2022-07-30T07:28:12.870Z,33.04
2022-07-30T07:30:44.343Z,32.87
2022-07-30T07:33:12.234Z,33.41
2022-07-30T07:35:48.647Z,34.04
2022-07-30T07:38:17.016Z,33.21
2022-07-30T07:40:43.634Z,30.83
2022-07-30T07:43:10.195Z,31.42
2022-07-30T07:45:39.527Z,30.74
2022-07-30T07:48:06.358Z,33.24
2022-07-30T07:50:35.127Z,34.22
2022-07-30T07:53:01.659Z,34.68
2022-07-30T07:55:28.244Z,35.20
2022-07-30T07:57:58.361Z,35.78
2022-07-30T08:00:25.256Z,36.74
2022-07-30T08:02:51.894Z,36.42
2022-07-30T08:05:18.682Z,36.40
2022-07-30T08:07:47.683Z,36.16
2022-07-30T08:10:17.283Z,36.29
2022-07-30T08:12:43.837Z,36.52
2022-07-30T08:15:10.990Z,36.14
2022-07-30T08:17:42.125Z,36.05
2022-07-30T08:20:10.033Z,35.97
2022-07-30T08:22:36.852Z,36.28
2022-07-30T08:25:04.640Z,36.45
2022-07-30T08:27:31.575Z,36.21
2022-07-30T08:29:58.228Z,36.88
2022-07-30T08:32:25.403Z,36.63
2022-07-30T08:34:59.325Z,35.09
2022-07-30T08:37:29.154Z,35.76
2022-07-30T08:39:55.982Z,35.50
2022-07-30T08:42:23.586Z,35.80
2022-07-30T08:44:53.773Z,35.20
2022-07-30T08:47:26.283Z,35.06
2022-07-30T08:49:53.504Z,34.73
2022-07-30T08:52:20.737Z,35.30
2022-07-30T08:54:47.607Z,34.77
2022-07-30T08:57:14.432Z,34.97
2022-07-30T09:00:00.799Z,34.91
2022-07-30T09:02:33.843Z,35.37
2022-07-30T09:05:00.490Z,34.58
2022-07-30T09:07:29.454Z,34.72
2022-07-30T09:09:56.732Z,35.07
2022-07-30T09:12:33.288Z,35.20
2022-07-30T09:15:06.044Z,35.20
2022-07-30T09:17:54.507Z,35.44
2022-07-30T09:20:23.414Z,35.22
2022-07-30T09:22:53.077Z,35.26
2022-07-30T09:25:45.925Z,34.55
2022-07-30T09:28:16.185Z,33.55
2022-07-30T09:30:49.374Z,33.49
2022-07-30T09:33:32.151Z,33.02
2022-07-30T09:35:59.390Z,32.65
2022-07-30T09:38:26.400Z,32.34
2022-07-30T09:40:58.099Z,32.00
2022-07-30T09:43:27.808Z,31.69
2022-07-30T09:45:58.860Z,31.65
2022-07-30T09:48:27.314Z,31.39
2022-07-30T09:50:55.333Z,30.89
2022-07-30T09:53:24.597Z,31.01
2022-07-30T09:55:51.265Z,30.80
2022-07-30T09:58:27.134Z,30.88
2022-07-30T10:00:59.598Z,30.37
2022-07-30T10:03:33.276Z,29.56
2022-07-30T10:06:03.852Z,29.38
2022-07-30T10:08:41.587Z,29.35
2022-07-30T10:11:15.686Z,29.26
2022-07-30T10:13:45.684Z,29.24
2022-07-30T10:16:13.219Z,29.04
2022-07-30T10:18:42.523Z,29.50
2022-07-30T10:21:11.189Z,29.61
2022-07-30T10:23:44.195Z,29.50
2022-07-30T10:26:12.480Z,29.48
2022-07-30T10:28:48.037Z,29.57
2022-07-30T10:31:49.299Z,29.29
2022-07-30T10:34:02.713Z,29.41
2022-07-30T10:36:30.604Z,29.20
2022-07-30T10:38:57.550Z,28.89
2022-07-30T10:41:53.933Z,29.02
2022-07-30T10:44:44.350Z,29.16
2022-07-30T10:47:14.187Z,29.18
2022-07-30T10:49:42.998Z,29.26
2022-07-30T10:52:10.886Z,29.06
2022-07-30T10:54:40.317Z,28.35
2022-07-30T10:57:08.577Z,29.05
2022-07-30T10:59:50.361Z,29.20
2022-07-30T11:02:19.712Z,29.33
2022-07-30T11:04:46.729Z,28.87
2022-07-30T11:07:33.599Z,28.98
2022-07-30T11:10:05.163Z,29.01
2022-07-30T11:12:45.042Z,28.96
2022-07-30T11:15:18.607Z,28.98
2022-07-30T11:18:12.368Z,28.88
2022-07-30T11:20:41.016Z,28.85
2022-07-30T11:23:20.785Z,29.00
2022-07-30T11:25:51.124Z,28.79
2022-07-30T11:28:39.285Z,28.37
2022-07-30T11:31:36.819Z,28.35
2022-07-30T11:34:18.348Z,28.37
2022-07-30T11:37:19.286Z,28.37
2022-07-30T11:39:55.237Z,28.64
2022-07-30T11:42:32.650Z,28.83
2022-07-30T11:45:23.239Z,28.70
2022-07-30T11:47:51.658Z,28.50
2022-07-30T11:50:23.852Z,28.61
2022-07-30T11:53:06.932Z,28.84
2022-07-30T11:55:40.336Z,29.16
2022-07-30T11:58:10.479Z,29.22
2022-07-30T12:00:38.531Z,29.29
2022-07-30T12:03:15.566Z,29.15
2022-07-30T12:05:43.526Z,28.96
2022-07-30T12:08:31.555Z,28.83
2022-07-30T12:11:00.343Z,29.04
2022-07-30T12:13:43.470Z,29.40
2022-07-30T12:16:16.057Z,29.49
2022-07-30T12:18:44.074Z,29.57
2022-07-30T12:21:17.604Z,29.53
2022-07-30T12:24:07.577Z,29.58
2022-07-30T12:26:35.257Z,29.59
2022-07-30T12:29:05.235Z,29.60
2022-07-30T12:31:33.800Z,29.72
2022-07-30T12:34:00.994Z,29.74
2022-07-30T12:36:32.800Z,29.70
2022-07-30T12:39:00.993Z,29.86
2022-07-30T12:41:45.143Z,29.99
2022-07-30T12:44:45.042Z,29.96
2022-07-30T12:47:31.115Z,30.06
2022-07-30T12:50:00.686Z,29.95
2022-07-30T12:52:35.829Z,30.04
2022-07-30T12:55:10.791Z,30.07
2022-07-30T12:57:57.123Z,30.21
2022-07-30T13:00:26.922Z,30.11
2022-07-30T13:02:53.855Z,30.05
2022-07-30T13:05:20.636Z,30.23
2022-07-30T13:07:58.721Z,29.90
2022-07-30T13:10:30.461Z,30.07
2022-07-30T13:12:58.456Z,30.33
2022-07-30T13:15:25.378Z,30.21
2022-07-30T13:17:52.067Z,30.06
2022-07-30T13:20:18.956Z,30.21
2022-07-30T13:22:45.754Z,30.36
2022-07-30T13:25:12.947Z,30.33
2022-07-30T13:27:39.765Z,30.60
2022-07-30T13:30:09.889Z,30.86
2022-07-30T13:32:36.628Z,31.06
2022-07-30T13:35:03.858Z,30.79
2022-07-30T13:37:38.141Z,30.76
2022-07-30T13:40:06.097Z,30.62
2022-07-30T13:42:32.796Z,30.28
2022-07-30T13:44:59.436Z,30.06
2022-07-30T13:47:28.150Z,29.64
2022-07-30T13:49:54.747Z,29.42
2022-07-30T13:52:21.324Z,29.63
2022-07-30T13:54:48.260Z,29.81
2022-07-30T13:57:14.841Z,29.86
2022-07-30T13:59:41.498Z,29.80
2022-07-30T14:02:08.931Z,29.76
2022-07-30T14:04:35.520Z,29.70
2022-07-30T14:07:02.540Z,29.69
2022-07-30T14:09:29.267Z,29.73
2022-07-30T14:11:56.073Z,29.99
2022-07-30T14:14:22.632Z,30.07
2022-07-30T14:16:58.977Z,29.98
2022-07-30T14:19:25.674Z,30.17
2022-07-30T14:21:53.857Z,30.35
2022-07-30T14:24:23.676Z,30.40
2022-07-30T14:26:55.848Z,30.56
2022-07-30T14:29:24.735Z,30.55
2022-07-30T14:31:51.604Z,30.54
2022-07-30T14:34:19.196Z,30.56
2022-07-30T14:36:45.765Z,30.86
2022-07-30T14:39:14.874Z,30.77
2022-07-30T14:41:43.017Z,30.79
2022-07-30T14:44:12.211Z,30.69
2022-07-30T14:46:39.656Z,30.68
2022-07-30T14:49:19.554Z,30.68
2022-07-30T14:51:46.172Z,30.75
2022-07-30T14:54:12.807Z,30.60
2022-07-30T14:56:39.671Z,30.64
2022-07-30T14:59:09.244Z,30.78
2022-07-30T15:01:35.946Z,30.98
2022-07-30T15:04:09.508Z,30.90
2022-07-30T15:06:37.498Z,30.95
2022-07-30T15:09:04.396Z,30.95
2022-07-30T15:11:40.236Z,30.91
2022-07-30T15:14:17.765Z,30.83
2022-07-30T15:16:47.990Z,30.85
2022-07-30T15:19:17.046Z,30.75
2022-07-30T15:21:44.817Z,30.88
2022-07-30T15:24:13.606Z,30.88
2022-07-30T15:26:40.176Z,31.03
2022-07-30T15:29:11.601Z,30.96
2022-07-30T15:31:39.862Z,30.97
2022-07-30T15:34:10.764Z,31.08
2022-07-30T15:36:38.991Z,30.93
2022-07-30T15:39:06.590Z,30.69
2022-07-30T15:41:33.542Z,30.45
2022-07-30T15:44:00.138Z,30.38
2022-07-30T15:46:31.267Z,30.24
2022-07-30T15:48:57.936Z,30.03
2022-07-30T15:51:24.596Z,29.89
2022-07-30T15:53:51.149Z,29.93
2022-07-30T15:56:18.749Z,29.93
2022-07-30T15:58:45.306Z,29.85
2022-07-30T16:01:12.161Z,29.62
2022-07-30T16:03:41.072Z,29.47
2022-07-30T16:06:07.672Z,29.43
2022-07-30T16:08:34.356Z,29.36
2022-07-30T16:11:04.532Z,29.41
2022-07-30T16:13:34.479Z,29.39
2022-07-30T16:16:01.337Z,29.36
2022-07-30T16:18:27.905Z,29.21
2022-07-30T16:20:58.547Z,29.01
2022-07-30T16:23:25.371Z,28.97
2022-07-30T16:25:51.943Z,28.77
2022-07-30T16:28:21.113Z,28.90
2022-07-30T16:30:51.700Z,28.81
2022-07-30T16:33:19.507Z,28.70
2022-07-30T16:35:49.038Z,28.63
2022-07-30T16:38:17.963Z,28.61
2022-07-30T16:40:49.515Z,28.58
2022-07-30T16:43:19.536Z,28.54
2022-07-30T16:45:46.847Z,28.58
2022-07-30T16:48:13.852Z,28.60
2022-07-30T16:50:41.423Z,28.61
2022-07-30T16:53:13.841Z,28.56
2022-07-30T16:55:41.642Z,28.57
2022-07-30T16:58:10.709Z,28.57
2022-07-30T17:00:38.011Z,28.59
2022-07-30T17:03:04.679Z,28.56
2022-07-30T17:05:31.548Z,28.51
2022-07-30T17:07:58.286Z,28.41
2022-07-30T17:10:26.359Z,28.28
2022-07-30T17:12:56.963Z,28.15
2022-07-30T17:15:32.374Z,28.01
2022-07-30T17:18:00.764Z,27.92
2022-07-30T17:20:27.913Z,27.80
2022-07-30T17:22:56.255Z,27.72
2022-07-30T17:25:27.721Z,27.62
2022-07-30T17:27:58.851Z,27.62
2022-07-30T17:30:27.306Z,27.57
2022-07-30T17:32:56.797Z,27.60
2022-07-30T17:35:24.738Z,27.50
2022-07-30T17:37:51.783Z,27.43
2022-07-30T17:40:27.824Z,27.40
2022-07-30T17:43:03.788Z,27.19
2022-07-30T17:45:34.816Z,27.26
2022-07-30T17:48:02.214Z,27.10
2022-07-30T17:50:32.415Z,27.03
2022-07-30T17:52:59.635Z,26.90
2022-07-30T17:55:28.052Z,26.81
2022-07-30T17:57:54.757Z,26.79
2022-07-30T18:00:22.825Z,26.66
2022-07-30T18:02:49.332Z,26.60
2022-07-30T18:05:16.090Z,26.51
2022-07-30T18:07:43.950Z,26.46
2022-07-30T18:10:11.237Z,26.41
2022-07-30T18:12:38.201Z,26.28
2022-07-30T18:15:08.333Z,26.28
2022-07-30T18:17:34.945Z,26.19
2022-07-30T18:20:01.712Z,26.16
2022-07-30T18:22:29.821Z,26.14
2022-07-30T18:25:00.901Z,26.09
2022-07-30T18:27:27.875Z,26.06
2022-07-30T18:29:56.840Z,26.02
2022-07-30T18:32:24.687Z,25.98
2022-07-30T18:34:53.688Z,25.95
2022-07-30T18:37:20.316Z,25.96
2022-07-30T18:39:46.857Z,25.88
2022-07-30T18:42:13.444Z,25.76
2022-07-30T18:44:39.972Z,25.71
2022-07-30T18:47:07.029Z,25.73
2022-07-30T18:49:37.084Z,25.78
2022-07-30T18:52:05.396Z,25.74
2022-07-30T18:54:32.301Z,25.69
2022-07-30T18:56:58.868Z,25.73
2022-07-30T18:59:25.457Z,25.71
2022-07-30T19:01:52.259Z,25.64
2022-07-30T19:04:18.954Z,25.62
2022-07-30T19:06:45.749Z,25.55
2022-07-30T19:09:16.795Z,25.53
2022-07-30T19:11:45.285Z,25.51
2022-07-30T19:14:13.262Z,25.45
2022-07-30T19:16:41.785Z,25.41
2022-07-30T19:19:09.042Z,25.30
2022-07-30T19:21:35.907Z,25.30
2022-07-30T19:24:02.613Z,25.29
2022-07-30T19:26:31.600Z,25.28
2022-07-30T19:28:58.477Z,25.25
2022-07-30T19:31:25.907Z,25.17
2022-07-30T19:33:52.717Z,25.13
2022-07-30T19:36:21.314Z,25.05
2022-07-30T19:38:54.119Z,24.99
2022-07-30T19:41:20.683Z,24.99
2022-07-30T19:43:58.162Z,24.95
2022-07-30T19:46:25.649Z,24.92
2022-07-30T19:48:54.340Z,24.86
2022-07-30T19:51:25.406Z,24.80
2022-07-30T19:54:11.645Z,24.74
2022-07-30T19:56:43.017Z,24.61
2022-07-30T19:59:15.128Z,24.72
2022-07-30T20:01:43.018Z,24.69
2022-07-30T20:04:11.330Z,24.68
2022-07-30T20:06:39.914Z,24.64
2022-07-30T20:09:16.265Z,24.59
2022-07-30T20:11:46.133Z,24.56
2022-07-30T20:14:15.558Z,24.55
2022-07-30T20:16:43.044Z,24.50
2022-07-30T20:19:16.635Z,24.46
2022-07-30T20:21:56.889Z,24.34
2022-07-30T20:24:24.607Z,24.34
2022-07-30T20:26:52.241Z,24.29
2022-07-30T20:29:20.611Z,24.14
2022-07-30T20:31:49.801Z,24.22
2022-07-30T20:34:17.932Z,24.18
2022-07-30T20:36:44.827Z,24.20
2022-07-30T20:42:12.021Z,24.11
2022-07-30T20:44:40.289Z,24.11
2022-07-30T20:47:12.943Z,24.11
2022-07-30T20:49:40.727Z,24.16
2022-07-30T20:52:09.638Z,24.17
2022-07-30T20:54:37.299Z,24.19
2022-07-30T20:57:15.767Z,24.20
2022-07-30T20:59:44.820Z,24.21
2022-07-30T21:02:15.309Z,24.22
2022-07-30T21:04:42.057Z,24.18
2022-07-30T21:07:13.333Z,24.21
2022-07-30T21:09:51.993Z,24.22
2022-07-30T21:12:19.359Z,24.17
2022-07-30T21:15:01.807Z,24.19
2022-07-30T21:17:28.482Z,24.18
2022-07-30T21:19:55.117Z,24.16
2022-07-30T21:22:22.219Z,24.17
2022-07-30T21:24:50.618Z,24.12
2022-07-30T21:27:17.208Z,24.07
2022-07-30T21:29:45.724Z,24.05
2022-07-30T21:32:12.576Z,24.00
2022-07-30T21:34:42.368Z,24.02
2022-07-30T21:37:09.632Z,23.95
2022-07-30T21:39:40.177Z,23.91
2022-07-30T21:42:10.563Z,23.84
2022-07-30T21:44:40.357Z,23.82
2022-07-30T21:47:10.044Z,23.72
2022-07-30T21:49:37.728Z,23.69
2022-07-30T21:52:04.996Z,23.62
2022-07-30T21:54:45.184Z,23.56
2022-07-30T21:57:15.366Z,23.57
2022-07-30T21:59:51.160Z,23.53
2022-07-30T22:02:18.921Z,23.50
2022-07-30T22:04:50.603Z,23.47
2022-07-30T22:07:21.886Z,23.44
2022-07-30T22:09:48.958Z,23.46
2022-07-30T22:12:18.086Z,23.46
2022-07-30T22:14:45.305Z,23.44
2022-07-30T22:17:23.623Z,22.93
2022-07-30T22:20:03.074Z,23.35
2022-07-30T22:22:36.196Z,23.29
2022-07-30T22:25:06.915Z,23.23
2022-07-30T22:27:56.680Z,23.18
2022-07-30T22:30:26.680Z,23.10
2022-07-30T22:32:54.492Z,23.03
2022-07-30T22:35:33.743Z,22.98
2022-07-30T22:38:01.877Z,22.92
2022-07-30T22:40:28.445Z,22.87
2022-07-30T22:42:54.981Z,22.80
2022-07-30T22:45:45.775Z,22.77
2022-07-30T22:48:17.670Z,22.73
2022-07-30T22:50:48.830Z,22.69
2022-07-30T22:54:10.479Z,22.62
2022-07-30T22:56:05.944Z,22.56
2022-07-30T22:58:40.840Z,22.48
2022-07-30T23:01:09.341Z,22.48
2022-07-30T23:03:37.942Z,22.30
2022-07-30T23:06:06.782Z,22.34
2022-07-30T23:08:43.704Z,22.25
2022-07-30T23:11:10.347Z,22.14
2022-07-30T23:12:19.272Z,24.15
2022-07-30T23:13:38.649Z,22.10
2022-07-30T23:16:07.564Z,22.13
2022-07-30T23:18:37.361Z,22.08
2022-07-30T23:21:04.680Z,22.08
2022-07-30T23:23:36.792Z,22.07
2022-07-30T23:26:06.470Z,22.05
2022-07-30T23:28:33.042Z,21.99
2022-07-30T23:31:03.185Z,22.05
2022-07-30T23:33:31.271Z,22.05
2022-07-30T23:36:00.227Z,22.02
2022-07-30T23:38:27.390Z,22.00
2022-07-30T23:40:54.353Z,21.97
2022-07-30T23:43:20.924Z,21.95
2022-07-30T23:45:47.468Z,21.78
2022-07-30T23:48:15.094Z,21.88
2022-07-30T23:50:46.694Z,21.87
2022-07-30T23:53:13.439Z,21.66
2022-07-30T23:55:48.338Z,21.85
2022-07-30T23:58:18.395Z,21.77
